Perito Moreno, Argentina
Current Conditions -  °F | °C
As of 8:00 AM on Thursday 18 Dec 2014 (Local Time) from SAVC Reporting Station
Clear Clear  
Wind Chill: 63°   Ceiling: Unl
Heat Index: 63°   Visibility: 6mi
Dew Point: 37°   Wind: 33mph
Humidity: 39%   Direction: 290°WNW
Pressure: 29.44"   Gusts: 64mph
Location:  46.6°S, 70.93°W
Report Text: SAVC 181100Z 29029G56KT CAVOK 17/03 Q0997
Loading
Personal Weather Stations






























Interactive Weather Map New forecast layout! Learn more

10-Day Weather Forecast

Advertisements
Track Severe Weather on mobile